Time;durP1;ratioP1;P1;durP2;ratioP2;P2;SDS_P1;SDS_P2;PMS_P1;PMS_P2;Temp;Humidity;BMP_temperature;BMP_pressure;BME280_temperature;BME280_humidity;BME280_pressure;Samples;Min_cycle;Max_cycle;Signal;HPM_P1;HPM_P2
2022/08/23 00:01:38;;;;;;;5.75;5.00;;;563.20;2432.00;;;;;;5111878;28;20016;-75
2022/08/23 00:04:17;;;;;;;7.63;5.45;;;563.20;2432.00;;;;;;5093558;28;20023;-75
2022/08/23 00:06:44;;;;;;;7.20;4.72;;;;;;;;;;5111515;28;20019;-75
2022/08/23 00:09:10;;;;;;;7.50;5.07;;;538.40;2406.40;;;;;;5111730;28;20484;-74
2022/08/23 00:11:43;;;;;;;7.97;4.32;;;538.40;2406.40;;;;;;5111524;28;20016;-73
2022/08/23 00:14:18;;;;;;;5.78;4.55;;;538.40;2406.40;;;;;;5108986;28;20495;-74
2022/08/23 00:16:44;;;;;;;6.22;4.93;;;538.40;2406.40;;;;;;5111482;28;20084;-74
2022/08/23 00:19:12;;;;;;;5.40;4.70;;;538.40;2406.40;;;;;;5094573;28;20034;-76
2022/08/23 00:21:38;;;;;;;6.20;4.65;;;538.40;2406.40;;;;;;5112741;28;20018;-74
2022/08/23 00:24:06;;;;;;;7.15;5.00;;;538.40;2406.40;;;;;;5112162;28;20016;-75
2022/08/23 00:26:56;;;;;;;9.75;4.65;;;538.50;2406.40;;;;;;5112689;28;20023;-75
2022/08/23 00:29:29;;;;;;;6.88;4.82;;;538.40;2406.40;;;;;;5099055;28;20039;-75
2022/08/23 00:31:56;;;;;;;9.52;4.90;;;538.10;2406.40;;;;;;5112689;28;20028;-77
2022/08/23 00:34:22;;;;;;;5.85;5.22;;;538.00;2406.40;;;;;;5112676;28;20020;-75
2022/08/23 00:36:48;;;;;;;7.80;4.50;;;537.80;2406.40;;;;;;5116038;28;20031;-75
2022/08/23 00:39:15;;;;;;;6.15;4.60;;;538.00;2406.40;;;;;;5119001;28;20485;-75
2022/08/23 00:41:43;;;;;;;8.23;5.43;;;538.10;2406.40;;;;;;5112241;28;20027;-75
2022/08/23 00:49:49;;;;;;;6.30;5.28;;;538.20;2406.40;;;;;;5112359;28;20030;-74
2022/08/23 00:52:21;;;;;;;5.28;4.35;;;538.20;2406.40;;;;;;5112225;28;20026;-74
2022/08/23 00:54:49;;;;;;;6.07;5.35;;;538.20;2406.40;;;;;;5112112;28;20019;-75
2022/08/23 00:57:18;;;;;;;8.30;4.63;;;538.20;2406.40;;;;;;5093860;28;20027;-74
2022/08/23 00:59:44;;;;;;;6.35;4.68;;;538.00;2406.40;;;;;;5112073;28;20049;-75
2022/08/23 01:02:11;;;;;;;9.57;5.13;;;538.00;2406.40;;;;;;5111957;28;20072;-75
2022/08/23 01:04:41;;;;;;;6.13;4.80;;;538.10;2406.40;;;;;;5111985;28;20031;-74
2022/08/23 01:07:32;;;;;;;6.07;4.72;;;538.10;2406.40;;;;;;5111997;28;20054;-74
2022/08/23 01:10:08;;;;;;;6.90;5.45;;;538.10;2406.40;;;;;;5111934;28;20217;-75
2022/08/23 01:12:45;;;;;;;7.45;5.00;;;538.20;2406.40;;;;;;5112089;28;20380;-74
2022/08/23 01:15:20;;;;;;;7.30;5.00;;;538.10;2406.40;;;;;;5112038;28;20077;-74
2022/08/23 01:18:01;;;;;;;7.88;5.35;;;538.20;2406.40;;;;;;5093571;28;20114;-74
2022/08/23 01:20:34;;;;;;;6.90;5.40;;;538.10;2406.40;;;;;;5111935;28;20069;-74
2022/08/23 01:23:18;;;;;;;6.75;5.10;;;538.10;2406.40;;;;;;5112314;28;20024;-75
2022/08/23 01:25:45;;;;;;;7.40;5.35;;;538.10;2406.40;;;;;;5099265;28;20020;-74
2022/08/23 01:28:10;;;;;;;6.65;5.32;;;538.10;2406.40;;;;;;5111715;28;20031;-75
2022/08/23 01:30:37;;;;;;;6.68;5.13;;;538.10;2406.40;;;;;;5111853;28;20073;-74
2022/08/23 01:33:05;;;;;;;5.95;5.32;;;538.00;2406.40;;;;;;5111909;28;20114;-74
2022/08/23 01:35:37;;;;;;;9.30;6.10;;;538.00;2406.40;;;;;;5114273;28;20068;-75
2022/08/23 01:38:04;;;;;;;7.13;6.20;;;538.10;2406.40;;;;;;5115201;28;20052;-75
2022/08/23 01:40:31;;;;;;;9.65;5.82;;;538.00;2406.40;;;;;;5115531;28;20372;-74
2022/08/23 01:42:57;;;;;;;6.68;5.32;;;537.90;2406.40;;;;;;5115404;28;20026;-75
2022/08/23 01:45:23;;;;;;;8.07;5.50;;;538.00;2406.40;;;;;;5115489;28;20016;-75
2022/08/23 01:47:49;;;;;;;7.10;5.22;;;537.80;2406.40;;;;;;5115164;28;20484;-74
2022/08/23 01:50:14;;;;;;;7.22;5.97;;;537.80;2406.40;;;;;;5115252;28;20012;-74
2022/08/23 01:52:41;;;;;;;9.32;6.25;;;537.90;2406.40;;;;;;5115301;28;20063;-75
2022/08/23 01:55:07;;;;;;;6.50;5.07;;;537.90;2406.40;;;;;;5114936;28;20068;-74
2022/08/23 01:57:34;;;;;;;7.78;5.28;;;538.00;2406.40;;;;;;5115315;28;20027;-74
2022/08/23 02:00:00;;;;;;;8.45;5.45;;;538.00;2406.40;;;;;;5114964;28;20020;-74
2022/08/23 02:02:26;;;;;;;6.82;5.68;;;538.00;2406.40;;;;;;5115401;28;20050;-75
2022/08/23 02:04:52;;;;;;;10.48;5.40;;;538.10;2406.40;;;;;;5096172;28;20078;-75
2022/08/23 02:07:18;;;;;;;6.10;5.22;;;538.10;2406.40;;;;;;5096500;28;20063;-75
2022/08/23 02:09:44;;;;;;;10.25;5.53;;;538.00;2406.40;;;;;;5114638;28;20023;-75
2022/08/23 02:12:10;;;;;;;5.97;4.85;;;538.00;2406.40;;;;;;5096337;28;20059;-75
2022/08/23 02:14:36;;;;;;;8.73;4.95;;;537.90;2406.40;;;;;;5114767;28;20086;-75
2022/08/23 02:17:03;;;;;;;6.38;5.30;;;538.00;2406.40;;;;;;5114948;28;20031;-75
2022/08/23 02:19:29;;;;;;;10.30;5.63;;;538.00;2406.40;;;;;;5114818;28;20016;-76
2022/08/23 02:21:55;;;;;;;6.97;5.20;;;538.10;2406.40;;;;;;5114556;28;20019;-75
2022/08/23 02:24:23;;;;;;;6.55;5.20;;;538.10;2406.40;;;;;;5095942;28;20032;-76
2022/08/23 02:26:51;;;;;;;6.53;5.45;;;538.20;2406.40;;;;;;5114324;28;20023;-74
2022/08/23 02:29:20;;;;;;;7.63;5.47;;;538.10;2406.40;;;;;;5114655;28;20461;-75
2022/08/23 02:31:46;;;;;;;7.10;5.30;;;538.10;2406.40;;;;;;5096071;28;20110;-75
2022/08/23 02:34:13;;;;;;;9.77;6.00;;;538.10;2406.40;;;;;;5114550;28;20157;-76
2022/08/23 02:36:39;;;;;;;8.10;5.32;;;538.10;2406.40;;;;;;5095378;28;20032;-75
2022/08/23 02:39:06;;;;;;;8.93;5.75;;;538.10;2406.40;;;;;;5114068;28;20473;-74
2022/08/23 02:41:33;;;;;;;13.50;5.38;;;538.10;2406.40;;;;;;5114466;28;20634;-75
2022/08/23 02:43:59;;;;;;;6.78;5.55;;;538.10;2406.40;;;;;;5114119;28;20110;-74
2022/08/23 02:46:25;;;;;;;6.90;5.68;;;537.80;2406.40;;;;;;5114302;28;20110;-75
2022/08/23 02:48:50;;;;;;;8.10;6.07;;;512.90;2380.80;;;;;;5114025;28;20366;-75
2022/08/23 02:51:17;;;;;;;7.13;5.95;;;512.90;2380.80;;;;;;5114138;28;20038;-75
2022/08/23 02:53:43;;;;;;;8.60;6.15;;;537.60;2406.40;;;;;;5114002;28;20059;-75
2022/08/23 02:56:10;;;;;;;13.55;6.57;;;512.80;2380.80;;;;;;5113917;28;20468;-75
2022/08/23 02:58:36;;;;;;;9.07;5.95;;;512.70;2380.80;;;;;;5113931;28;20102;-75
2022/08/23 03:01:01;;;;;;;10.45;6.63;;;512.60;2380.80;;;;;;5114097;28;20059;-75
2022/08/23 03:03:28;;;;;;;7.72;5.95;;;512.50;2380.80;;;;;;5113877;28;20019;-74
2022/08/23 03:05:54;;;;;;;10.23;6.30;;;512.40;2380.80;;;;;;5113767;28;20019;-74
2022/08/23 03:08:20;;;;;;;9.10;6.50;;;512.60;2380.80;;;;;;5113521;28;20059;-74
2022/08/23 03:10:49;;;;;;;8.43;6.55;;;512.60;2380.80;;;;;;5113581;28;20098;-75
2022/08/23 03:13:15;;;;;;;11.80;6.88;;;512.60;2380.80;;;;;;5113713;28;20175;-75
2022/08/23 03:15:41;;;;;;;7.88;6.70;;;512.60;2380.80;;;;;;5113555;28;20025;-75
2022/08/23 03:18:08;;;;;;;11.23;6.53;;;512.60;2380.80;;;;;;5113905;28;20030;-76
2022/08/23 03:20:35;;;;;;;8.77;6.28;;;512.50;2380.80;;;;;;5113479;28;20024;-75
2022/08/23 03:23:00;;;;;;;7.43;6.45;;;512.80;2380.80;;;;;;5113665;28;20035;-74
2022/08/23 03:25:27;;;;;;;11.30;6.68;;;512.70;2380.80;;;;;;5113199;28;20024;-75
2022/08/23 03:27:53;;;;;;;7.22;6.38;;;512.90;2380.80;;;;;;5113345;28;20028;-78
2022/08/23 03:30:19;;;;;;;10.45;7.30;;;512.90;2380.80;;;;;;5113607;28;20027;-75
2022/08/23 03:32:44;;;;;;;9.07;6.55;;;537.60;2406.40;;;;;;5113252;28;20446;-75
2022/08/23 03:35:10;;;;;;;8.57;7.10;;;512.90;2380.80;;;;;;5113244;28;20053;-74
2022/08/23 03:37:36;;;;;;;14.18;7.60;;;537.60;2406.40;;;;;;5112925;28;20075;-75
2022/08/23 03:40:05;;;;;;;9.38;6.78;;;537.80;2406.40;;;;;;5113213;28;20069;-75
2022/08/23 03:42:31;;;;;;;9.10;6.75;;;537.80;2406.40;;;;;;5112897;28;20039;-75
2022/08/23 03:44:57;;;;;;;9.18;7.28;;;537.90;2406.40;;;;;;5113162;28;20124;-74
2022/08/23 03:47:23;;;;;;;10.02;7.45;;;537.90;2406.40;;;;;;5112904;28;20100;-73
2022/08/23 03:49:48;;;;;;;9.23;6.90;;;537.60;2406.40;;;;;;5094824;28;20046;-74
2022/08/23 03:52:14;;;;;;;10.13;7.95;;;512.90;2380.80;;;;;;5112809;28;20422;-75
2022/08/23 03:54:40;;;;;;;9.77;7.38;;;537.60;2406.40;;;;;;5112690;28;20031;-75
2022/08/23 03:57:08;;;;;;;11.63;8.05;;;537.70;2406.40;;;;;;5112626;28;20043;-75
2022/08/23 03:59:36;;;;;;;9.30;7.43;;;537.70;2406.40;;;;;;5112699;28;20027;-74
2022/08/23 04:02:03;;;;;;;9.68;7.95;;;537.70;2406.40;;;;;;5109564;28;20028;-73
2022/08/23 04:04:29;;;;;;;11.25;8.15;;;537.90;2406.40;;;;;;5105706;28;20086;-75
2022/08/23 04:06:55;;;;;;;10.07;6.95;;;537.90;2406.40;;;;;;5096975;28;20493;-73
2022/08/23 04:09:21;;;;;;;11.13;7.47;;;538.00;2406.40;;;;;;5112386;28;20023;-76
2022/08/23 04:11:47;;;;;;;10.30;7.13;;;538.00;2406.40;;;;;;5094585;28;20469;-75
2022/08/23 04:14:14;;;;;;;12.20;7.72;;;538.00;2406.40;;;;;;5110265;28;20076;-79
2022/08/23 04:16:40;;;;;;;11.00;7.45;;;538.00;2406.40;;;;;;5110885;28;20091;-79
2022/08/23 04:19:08;;;;;;;13.65;7.75;;;538.00;2406.40;;;;;;5101690;28;20023;-79
2022/08/23 04:21:36;;;;;;;11.45;8.02;;;538.00;2406.40;;;;;;5085533;28;20477;-75
2022/08/23 04:24:02;;;;;;;9.30;7.85;;;537.80;2406.40;;;;;;5109178;28;20020;-75
2022/08/23 04:26:29;;;;;;;11.27;8.98;;;537.60;2406.40;;;;;;5109941;28;20043;-74
2022/08/23 04:28:55;;;;;;;10.02;7.70;;;512.90;2380.80;;;;;;5096828;28;20032;-75
2022/08/23 04:31:22;;;;;;;11.07;8.50;;;537.60;2406.40;;;;;;5108688;28;20028;-74
2022/08/23 04:33:48;;;;;;;10.75;8.10;;;537.60;2406.40;;;;;;5108741;28;20050;-76
2022/08/23 04:36:14;;;;;;;12.27;8.40;;;537.60;2406.40;;;;;;5093889;28;20016;-78
2022/08/23 04:38:39;;;;;;;14.35;9.13;;;537.60;2406.40;;;;;;5093981;28;20047;-76
2022/08/23 04:43:49;;;;;;;12.05;9.10;;;537.80;2406.40;;;;;;5101523;28;20043;-78
2022/08/23 04:46:16;;;;;;;12.57;9.82;;;537.80;2406.40;;;;;;5080109;28;20035;-79
2022/08/23 04:48:43;;;;;;;11.07;8.70;;;537.80;2406.40;;;;;;5089051;28;20062;-75
2022/08/23 04:51:09;;;;;;;14.18;9.75;;;537.60;2406.40;;;;;;5102229;28;20012;-78
2022/08/23 04:53:37;;;;;;;20.88;9.32;;;512.90;2380.80;;;;;;5103099;28;20072;-78
2022/08/23 04:56:04;;;;;;;12.98;9.23;;;537.70;2406.40;;;;;;5093906;28;20019;-78
2022/08/23 04:58:32;;;;;;;13.23;8.88;;;537.80;2406.40;;;;;;5085869;28;20023;-79
2022/08/23 05:01:00;;;;;;;12.30;9.10;;;537.70;2406.40;;;;;;5093651;28;20032;-77
2022/08/23 05:03:27;;;;;;;13.68;9.75;;;537.70;2406.40;;;;;;5112298;28;20110;-79
2022/08/23 05:05:53;;;;;;;14.23;9.60;;;537.60;2406.40;;;;;;5112093;28;20023;-78
2022/08/23 05:08:19;;;;;;;11.20;9.35;;;537.70;2406.40;;;;;;5112178;28;20481;-76
2022/08/23 05:10:45;;;;;;;14.80;9.90;;;537.80;2406.40;;;;;;5114260;28;20042;-78
2022/08/23 05:13:12;;;;;;;14.07;10.57;;;537.80;2406.40;;;;;;5116233;28;20026;-76
2022/08/23 05:15:38;;;;;;;14.48;9.82;;;537.80;2406.40;;;;;;5115935;28;20024;-74
2022/08/23 05:18:04;;;;;;;12.15;10.02;;;537.90;2406.40;;;;;;5109290;28;20030;-74
2022/08/23 05:20:30;;;;;;;13.80;10.35;;;537.90;2406.40;;;;;;5104297;28;20433;-76
2022/08/23 05:22:58;;;;;;;12.55;10.25;;;537.80;2406.40;;;;;;5109480;28;20020;-73
2022/08/23 05:25:48;;;;;;;18.15;11.73;;;537.70;2406.40;;;;;;5116113;28;20015;-73
2022/08/23 05:28:09;;;;;;;13.17;10.47;;;537.80;2406.40;;;;;;5115613;28;20114;-72
2022/08/23 05:30:35;;;;;;;16.83;11.05;;;537.80;2406.40;;;;;;5115935;28;20541;-74
2022/08/23 05:33:01;;;;;;;14.07;10.75;;;537.70;2406.40;;;;;;5097328;28;20034;-76
2022/08/23 05:35:26;;;;;;;14.75;11.15;;;537.80;2406.40;;;;;;5115493;28;20020;-76
2022/08/23 05:37:52;;;;;;;13.73;10.30;;;537.90;2406.40;;;;;;5100580;28;20059;-73
2022/08/23 05:40:18;;;;;;;12.93;11.57;;;538.00;2406.40;;;;;;5115670;28;20024;-81
2022/08/23 05:42:44;;;;;;;14.70;10.60;;;538.10;2406.40;;;;;;5115651;28;20015;-74
2022/08/23 05:45:09;;;;;;;15.15;10.75;;;538.20;2406.40;;;;;;5115529;28;20023;-74
2022/08/23 05:47:35;;;;;;;17.08;11.23;;;538.20;2406.40;;;;;;5115382;28;20031;-75
2022/08/23 05:50:01;;;;;;;12.90;10.60;;;538.10;2406.40;;;;;;5115489;28;20020;-75
2022/08/23 05:52:27;;;;;;;16.40;11.15;;;538.10;2406.40;;;;;;5115549;28;20051;-75
2022/08/23 05:54:52;;;;;;;14.65;10.93;;;538.10;2406.40;;;;;;5115147;28;20030;-74
2022/08/23 05:57:18;;;;;;;17.02;11.38;;;538.10;2406.40;;;;;;5113455;28;20015;-81
2022/08/23 05:59:44;;;;;;;18.48;10.38;;;538.20;2406.40;;;;;;5106575;28;20431;-74
2022/08/23 06:02:09;;;;;;;16.65;11.32;;;538.20;2406.40;;;;;;5115365;28;20095;-76
2022/08/23 06:04:35;;;;;;;19.45;11.55;;;538.30;2406.40;;;;;;5115032;28;20027;-75
2022/08/23 06:07:01;;;;;;;13.75;11.13;;;538.40;2406.40;;;;;;5115028;28;20081;-75
2022/08/23 06:09:27;;;;;;;13.05;10.23;;;538.50;2406.40;;;;;;5114594;28;20066;-77
2022/08/23 06:11:53;;;;;;;12.90;10.82;;;538.50;2406.40;;;;;;5114737;27;20055;-76
2022/08/23 06:14:18;;;;;;;12.30;10.27;;;563.20;2432.00;;;;;;5088118;28;20039;-78
2022/08/23 06:16:48;;;;;;;13.60;10.80;;;563.30;2432.00;;;;;;5114274;28;20056;-75
2022/08/23 06:19:15;;;;;;;14.77;10.35;;;563.20;2432.00;;;;;;5114636;28;20022;-79
2022/08/23 06:21:41;;;;;;;12.85;11.02;;;538.50;2406.40;;;;;;5113629;28;20511;-79
2022/08/23 06:24:07;;;;;;;12.27;10.88;;;563.30;2432.00;;;;;;5097120;28;20027;-79
2022/08/23 06:26:39;;;;;;;14.35;10.38;;;563.20;2432.00;;;;;;5114945;28;20070;-80
2022/08/23 06:29:08;;;;;;;12.88;10.35;;;563.30;2432.00;;;;;;5096444;28;20039;-80
2022/08/23 06:31:47;;;;;;;17.17;10.75;;;563.40;2432.00;;;;;;5105170;28;20028;-80
2022/08/23 06:34:42;;;;;;;17.90;9.85;;;563.40;2432.00;;;;;;5094143;28;20386;-81
2022/08/23 06:37:13;;;;;;;16.20;12.48;;;563.50;2432.00;;;;;;4972077;28;20054;-78
2022/08/23 06:39:40;;;;;;;20.20;12.07;;;563.50;2432.00;;;;;;4969034;28;20062;-80
2022/08/23 06:42:12;;;;;;;15.05;11.45;;;563.50;2432.00;;;;;;4980530;28;20066;-79
2022/08/23 06:44:38;;;;;;;18.73;11.15;;;563.50;2432.00;;;;;;4980952;28;20559;-78
2022/08/23 06:47:05;;;;;;;12.15;10.80;;;563.50;2432.00;;;;;;4966683;28;20030;-80
2022/08/23 06:49:32;;;;;;;13.75;10.40;;;563.50;2432.00;;;;;;4988069;28;20180;-75
2022/08/23 06:51:59;;;;;;;13.25;11.00;;;563.60;2432.00;;;;;;4977510;28;20062;-74
2022/08/23 06:54:27;;;;;;;15.57;9.70;;;563.50;2432.00;;;;;;4979913;28;20125;-75
2022/08/23 06:56:54;;;;;;;14.77;11.05;;;563.60;2432.00;;;;;;4992130;28;20074;-75
2022/08/23 06:59:21;;;;;;;15.75;10.82;;;563.60;2432.00;;;;;;4991074;28;20031;-75
2022/08/23 07:01:58;;;;;;;13.95;12.07;;;563.60;2432.00;;;;;;4991464;28;20027;-75
2022/08/23 07:04:28;;;;;;;;;;;563.60;2432.00;;;;;;4963228;28;20019;-75
2022/08/23 07:06:54;;;;;;;16.52;12.55;;;563.60;2432.00;;;;;;4988042;28;19914;-75
2022/08/23 07:09:20;;;;;;;14.00;12.02;;;563.60;2432.00;;;;;;4991392;28;20030;-75
2022/08/23 07:11:46;;;;;;;23.50;13.85;;;563.60;2432.00;;;;;;4991113;28;20033;-74
2022/08/23 07:14:15;;;;;;;14.82;13.23;;;563.60;2432.00;;;;;;5086368;28;20043;-77
2022/08/23 07:16:48;;;;;;;22.92;12.32;;;563.60;2432.00;;;;;;5106586;28;20059;-76
2022/08/23 07:19:16;;;;;;;16.05;13.23;;;563.60;2432.00;;;;;;5104722;28;20024;-76
2022/08/23 07:21:43;;;;;;;17.60;13.05;;;563.60;2432.00;;;;;;5095309;28;20077;-74
2022/08/23 07:24:09;;;;;;;15.85;13.55;;;563.60;2432.00;;;;;;5113546;28;20469;-75
2022/08/23 07:26:35;;;;;;;19.55;15.23;;;563.70;2432.00;;;;;;5113497;28;20081;-75
2022/08/23 07:29:10;;;;;;;16.85;13.50;;;563.60;2432.00;;;;;;5114259;28;20091;-76
2022/08/23 07:31:40;;;;;;;17.67;13.75;;;563.60;2432.00;;;;;;5098474;28;20437;-75
2022/08/23 07:34:07;;;;;;;16.80;14.25;;;563.60;2432.00;;;;;;5114211;28;20411;-75
2022/08/23 07:36:34;;;;;;;19.70;15.23;;;563.60;2432.00;;;;;;5113355;28;20491;-76
2022/08/23 07:39:00;;;;;;;21.38;16.02;;;563.60;2432.00;;;;;;5112996;28;20058;-75
2022/08/23 07:41:30;;;;;;;16.98;14.75;;;563.60;2432.00;;;;;;5113097;28;20033;-75
2022/08/23 07:44:01;;;;;;;18.13;14.05;;;563.60;2432.00;;;;;;5113132;28;20023;-75
2022/08/23 07:46:28;;;;;;;16.30;14.25;;;563.80;2432.00;;;;;;5112966;28;20476;-75
2022/08/23 07:48:59;;;;;;;25.23;15.65;;;563.70;2432.00;;;;;;5113174;28;20039;-75
2022/08/23 07:51:27;;;;;;;22.98;16.80;;;563.80;2432.00;;;;;;5112406;28;20023;-75
2022/08/23 07:53:53;;;;;;;23.40;16.20;;;563.70;2432.00;;;;;;5113145;28;20031;-74
2022/08/23 07:56:20;;;;;;;27.95;17.90;;;563.70;2432.00;;;;;;5094079;28;20028;-75
2022/08/23 07:58:46;;;;;;;27.35;17.45;;;563.60;2432.00;;;;;;5096576;28;20028;-75
2022/08/23 08:01:17;;;;;;;24.73;17.75;;;563.60;2432.00;;;;;;5107009;28;20046;-75
2022/08/23 08:03:46;;;;;;;27.38;19.05;;;563.60;2432.00;;;;;;5113019;28;20099;-74
2022/08/23 08:06:17;;;;;;;34.80;24.50;;;563.60;2432.00;;;;;;5113050;28;20027;-83
2022/08/23 08:08:43;;;;;;;64.63;51.53;;;563.60;2432.00;;;;;;5113058;28;20112;-77
2022/08/23 08:11:11;;;;;;;57.88;44.80;;;563.60;2432.00;;;;;;5094961;28;20020;-81
2022/08/23 08:13:42;;;;;;;34.72;28.52;;;563.60;2432.00;;;;;;5112352;28;20020;-77
2022/08/23 08:16:09;;;;;;;25.75;20.67;;;563.70;2432.00;;;;;;5097826;28;20027;-76
2022/08/23 08:18:36;;;;;;;31.85;24.23;;;563.50;2432.00;;;;;;5100676;28;20020;-75
2022/08/23 08:21:03;;;;;;;26.75;20.58;;;563.50;2432.00;;;;;;5105677;28;20012;-75
2022/08/23 08:23:29;;;;;;;26.88;19.85;;;563.60;2432.00;;;;;;5089816;28;20024;-82
2022/08/23 08:26:05;;;;;;;27.50;18.23;;;563.50;2432.00;;;;;;5094087;28;20508;-76
2022/08/23 08:28:31;;;;;;;25.53;19.80;;;563.60;2432.00;;;;;;5112462;28;20116;-77
2022/08/23 08:30:59;;;;;;;27.42;18.90;;;563.60;2432.00;;;;;;5106685;28;20024;-76
2022/08/23 08:33:26;;;;;;;51.30;32.17;;;563.60;2432.00;;;;;;5094190;28;20486;-78
2022/08/23 08:35:52;;;;;;;32.03;27.48;;;563.60;2432.00;;;;;;5094323;28;20020;-77
2022/08/23 08:38:18;;;;;;;29.67;21.23;;;563.50;2432.00;;;;;;5102427;28;20092;-75
2022/08/23 08:40:45;;;;;;;25.80;18.38;;;563.50;2432.00;;;;;;5100225;28;20461;-75
2022/08/23 08:43:33;;;;;;;22.40;16.58;;;563.40;2432.00;;;;;;5105171;28;20452;-78
2022/08/23 08:46:37;;;;;;;20.38;16.27;;;563.40;2432.00;;;;;;5103686;28;20016;-74
2022/08/23 08:49:06;;;;;;;26.52;16.60;;;563.40;2432.00;;;;;;5038710;28;20176;-74
2022/08/23 08:52:00;;;;;;;26.60;16.77;;;563.40;2432.00;;;;;;5035154;28;20079;-76
2022/08/23 08:54:30;;;;;;;25.42;17.27;;;563.30;2432.00;;;;;;5033594;28;20034;-75
2022/08/23 08:56:59;;;;;;;22.13;16.95;;;563.30;2432.00;;;;;;5035894;28;20021;-75
2022/08/23 09:00:12;;;;;;;23.17;17.25;;;563.30;2432.00;;;;;;5021689;28;20108;-74
2022/08/23 09:02:38;;;;;;;23.90;17.35;;;563.30;2432.00;;;;;;4990849;28;20042;-76
2022/08/23 09:05:16;;;;;;;23.80;19.02;;;538.50;2406.40;;;;;;4996481;28;20030;-75
2022/08/23 09:08:19;;;;;;;22.27;17.20;;;538.30;2406.40;;;;;;4999113;28;20054;-76
2022/08/23 09:10:59;;;;;;;22.30;17.85;;;538.30;2406.40;;;;;;4999961;28;20041;-75
2022/08/23 09:13:54;;;;;;;22.13;17.85;;;538.40;2124.80;;;;;;4997085;28;20173;-75
2022/08/23 09:16:19;;;;;;;24.33;17.10;;;538.50;2048.00;;;;;;5003586;28;20025;-75
2022/08/23 09:18:46;;;;;;;25.15;17.70;;;538.50;2406.40;;;;;;5012573;28;20414;-75
2022/08/23 09:21:14;;;;;;;22.85;18.70;;;563.20;2432.00;;;;;;4998654;28;20018;-86
2022/08/23 09:23:45;;;;;;;25.38;19.13;;;563.30;2432.00;;;;;;5003925;28;20030;-76
2022/08/23 09:26:21;;;;;;;21.98;18.05;;;563.30;2432.00;;;;;;5027541;28;20051;-75
2022/08/23 09:28:50;;;;;;;21.40;17.50;;;563.40;2432.00;;;;;;5056502;28;20025;-74
2022/08/23 09:31:36;;;;;;;24.48;16.33;;;563.40;2432.00;;;;;;5070116;28;20103;-75
2022/08/23 09:34:03;;;;;;;17.27;15.25;;;563.40;2432.00;;;;;;5032184;28;20136;-76
2022/08/23 09:36:33;;;;;;;21.00;17.98;;;563.50;2432.00;;;;;;5028998;28;20038;-76
2022/08/23 09:39:06;;;;;;;20.92;16.77;;;563.30;2432.00;;;;;;5037990;28;20167;-76
2022/08/23 09:41:38;;;;;;;21.85;18.00;;;563.40;2252.80;;;;;;5052207;28;20021;-75
2022/08/23 09:44:12;;;;;;;22.83;18.90;;;563.50;2432.00;;;;;;5052690;28;20474;-76
2022/08/23 09:46:42;;;;;;;24.38;19.48;;;563.60;2432.00;;;;;;5036024;28;20156;-75
2022/08/23 09:49:20;;;;;;;22.38;18.10;;;563.60;2201.60;;;;;;5052612;28;20394;-73
2022/08/23 09:51:47;;;;;;;25.13;19.55;;;563.70;2355.20;;;;;;5045044;28;20040;-76
2022/08/23 09:54:19;;;;;;;24.20;17.85;;;563.70;2432.00;;;;;;5053258;28;20031;-76
2022/08/23 09:56:53;;;;;;;22.58;18.65;;;563.80;2432.00;;;;;;5051609;28;20029;-75
2022/08/23 09:59:43;;;;;;;20.88;18.65;;;563.80;2432.00;;;;;;5052264;28;20033;-77
2022/08/23 10:02:25;;;;;;;21.42;18.27;;;563.90;2432.00;;;;;;5030105;28;20032;-75
2022/08/23 10:05:18;;;;;;;22.05;19.05;;;563.90;2432.00;;;;;;5052221;28;20479;-75
2022/08/23 10:07:59;;;;;;;24.23;18.13;;;563.80;2432.00;;;;;;5052024;28;20774;-75
2022/08/23 10:10:37;;;;;;;26.83;19.92;;;563.90;2432.00;;;;;;5061276;28;20039;-75
2022/08/23 10:13:05;;;;;;;26.55;20.90;;;564.00;2432.00;;;;;;5113214;28;20095;-75
2022/08/23 10:15:53;;;;;;;24.05;20.73;;;564.00;2432.00;;;;;;5111008;28;20024;-77
2022/08/23 10:18:27;;;;;;;25.80;21.33;;;564.00;2432.00;;;;;;5106149;28;20038;-75
2022/08/23 10:21:17;;;;;;;26.88;21.25;;;564.00;2432.00;;;;;;5114600;28;20047;-75
2022/08/23 10:24:02;;;;;;;21.55;18.73;;;563.90;2432.00;;;;;;5095911;28;20118;-75
2022/08/23 10:26:31;;;;;;;23.50;20.00;;;563.80;2432.00;;;;;;5103077;28;20020;-86
2022/08/23 10:29:39;;;;;;;26.33;21.42;;;563.80;2432.00;;;;;;5114261;28;20027;-78
2022/08/23 10:32:20;;;;;;;25.77;22.70;;;563.90;2432.00;;;;;;5114596;28;20069;-76
2022/08/23 10:34:59;;;;;;;28.40;23.80;;;563.80;2432.00;;;;;;5114251;28;20024;-76
2022/08/23 10:37:37;;;;;;;28.88;24.13;;;563.70;2432.00;;;;;;5114279;28;20044;-76
2022/08/23 10:40:42;;;;;;;25.98;22.17;;;563.70;2432.00;;;;;;5114371;28;20499;-75
2022/08/23 10:43:35;;;;;;;24.90;22.10;;;563.70;2432.00;;;;;;5100167;28;20023;-75
2022/08/23 10:46:02;;;;;;;25.33;21.98;;;563.70;2432.00;;;;;;5086814;28;20020;-75
2022/08/23 10:48:50;;;;;;;26.27;23.30;;;563.60;2432.00;;;;;;5102469;28;20392;-76
2022/08/23 10:51:25;;;;;;;25.67;22.63;;;563.70;2432.00;;;;;;5102984;28;20023;-74
2022/08/23 10:54:12;;;;;;;29.92;23.67;;;563.60;2432.00;;;;;;5102096;28;20384;-75
2022/08/23 10:56:38;;;;;;;26.50;23.70;;;563.70;2432.00;;;;;;5097989;28;20022;-80
2022/08/23 10:59:20;;;;;;;30.75;23.42;;;563.90;2432.00;;;;;;5085332;28;20464;-75
2022/08/23 11:02:13;;;;;;;25.75;22.73;;;563.90;2432.00;;;;;;5103427;28;20031;-76
2022/08/23 11:05:06;;;;;;;28.83;22.00;;;564.10;2432.00;;;;;;5102943;28;20153;-75
2022/08/23 11:07:33;;;;;;;32.13;27.13;;;564.10;2432.00;;;;;;5103500;28;20436;-75
2022/08/23 11:10:11;;;;;;;29.75;25.23;;;564.10;2432.00;;;;;;5100279;28;20035;-76
2022/08/23 11:12:56;;;;;;;30.02;24.65;;;564.10;2432.00;;;;;;5097063;28;20031;-80
2022/08/23 11:15:46;;;;;;;25.70;22.23;;;588.80;2432.00;;;;;;5083411;28;20466;-74
2022/08/23 11:18:40;;;;;;;29.20;25.42;;;589.00;2432.00;;;;;;5098320;28;20016;-77
2022/08/23 11:21:32;;;;;;;34.65;28.92;;;589.10;2432.00;;;;;;5103647;28;20024;-76
2022/08/23 11:23:57;;;;;;;28.90;25.83;;;589.20;2432.00;;;;;;5081408;28;20432;-75
2022/08/23 11:26:27;;;;;;;30.05;24.27;;;589.10;2432.00;;;;;;5086618;28;20011;-76
2022/08/23 11:28:58;;;;;;;26.05;23.25;;;589.00;2432.00;;;;;;5095028;28;20575;-75
2022/08/23 11:31:46;;;;;;;25.85;23.05;;;589.10;2432.00;;;;;;5097981;28;20020;-75
2022/08/23 11:34:39;;;;;;;27.88;24.77;;;589.20;2432.00;;;;;;5103622;28;20027;-77
2022/08/23 11:37:20;;;;;;;29.92;25.98;;;589.20;2432.00;;;;;;5103158;28;20489;-75
2022/08/23 11:39:58;;;;;;;32.35;23.38;;;589.10;2432.00;;;;;;5094758;28;20027;-75
2022/08/23 11:42:30;;;;;;;22.58;19.38;;;589.20;2432.00;;;;;;5106221;28;20039;-74
2022/08/23 11:44:56;;;;;;;19.45;17.38;;;589.30;2432.00;;;;;;5099245;28;20012;-75
2022/08/23 11:47:42;;;;;;;20.13;17.95;;;589.30;2432.00;;;;;;5106958;28;20063;-76
2022/08/23 11:50:32;;;;;;;19.65;17.23;;;589.40;2432.00;;;;;;5112978;28;20035;-75
2022/08/23 11:53:20;;;;;;;18.48;16.38;;;589.40;2432.00;;;;;;5113194;28;20096;-75
2022/08/23 11:56:20;;;;;;;14.85;13.27;;;589.50;2432.00;;;;;;5112788;28;20404;-75
2022/08/23 11:59:14;;;;;;;16.55;14.82;;;589.50;2432.00;;;;;;5112653;28;20011;-76
2022/08/23 12:01:41;;;;;;;16.17;14.48;;;589.50;2432.00;;;;;;5112874;28;20024;-75
2022/08/23 12:04:13;;;;;;;16.63;14.82;;;589.60;2432.00;;;;;;5112795;28;20011;-75
2022/08/23 12:06:49;;;;;;;15.32;13.55;;;589.60;2432.00;;;;;;5112585;28;20066;-75
2022/08/23 12:09:21;;;;;;;14.40;12.90;;;589.60;2432.00;;;;;;5112385;28;20036;-76
2022/08/23 12:11:56;;;;;;;13.40;11.93;;;589.60;2432.00;;;;;;5112686;28;20149;-76
2022/08/23 12:14:31;;;;;;;13.30;11.90;;;589.60;2432.00;;;;;;5094515;28;20026;-75
2022/08/23 12:17:04;;;;;;;13.32;11.45;;;589.70;2432.00;;;;;;5112776;28;20024;-75
2022/08/23 12:19:34;;;;;;;13.95;11.85;;;614.50;2432.00;;;;;;5112306;28;20427;-76
2022/08/23 12:22:23;;;;;;;12.15;10.82;;;614.60;2432.00;;;;;;5112433;28;20028;-76
2022/08/23 12:24:53;;;;;;;14.30;12.82;;;614.70;2432.00;;;;;;5112622;28;20358;-76
2022/08/23 12:27:37;;;;;;;13.32;11.05;;;614.80;2432.00;;;;;;5112442;28;20031;-77
2022/08/23 12:30:21;;;;;;;12.10;10.75;;;;;;;;;;5112197;28;20106;-74
2022/08/23 12:32:51;;;;;;;11.80;10.60;;;615.10;2432.00;;;;;;5103894;28;20068;-73
2022/08/23 12:35:23;;;;;;;12.70;11.38;;;615.20;2432.00;;;;;;5097489;28;20016;-76